createdAt,value
2018-01-08T00:00:31.949Z,6.19
2018-01-08T00:01:31.634Z,6.09
2018-01-08T00:02:31.919Z,6.12
2018-01-08T00:03:31.930Z,6.14
2018-01-08T00:04:31.669Z,6.12
2018-01-08T00:05:31.952Z,6.22
2018-01-08T00:06:31.689Z,6.11
2018-01-08T00:07:31.982Z,6.12
2018-01-08T00:08:31.988Z,6.12
2018-01-08T00:09:31.727Z,6.14
2018-01-08T00:10:32.059Z,6.16
2018-01-08T00:11:31.468Z,6.14
2018-01-08T00:12:32.035Z,6.19
2018-01-08T00:13:31.770Z,6.16
2018-01-08T00:14:32.059Z,6.14
2018-01-08T00:15:31.790Z,6.09
2018-01-08T00:16:32.087Z,6.07
2018-01-08T00:17:32.092Z,6.19
2018-01-08T00:18:32.097Z,6.08
2018-01-08T00:19:31.834Z,6.12
2018-01-08T00:20:31.844Z,6.07
2018-01-08T00:21:31.869Z,6.19
2018-01-08T00:22:32.144Z,6.16
2018-01-08T00:23:32.158Z,6.11
2018-01-08T00:24:31.890Z,6.14
2018-01-08T00:25:31.957Z,6.11
2018-01-08T00:26:32.189Z,6.16
2018-01-08T00:27:32.198Z,6.16
2018-01-08T00:28:32.210Z,6.19
2018-01-08T00:29:32.221Z,6.2
2018-01-08T00:30:32.233Z,6.16
2018-01-08T00:31:31.968Z,6.16
2018-01-08T00:32:32.259Z,6.16
2018-01-08T00:33:31.989Z,6.12
2018-01-08T00:34:32.273Z,6.11
2018-01-08T00:35:32.011Z,6.09
2018-01-08T00:36:32.302Z,6.19
2018-01-08T00:37:32.307Z,6.04
2018-01-08T00:38:32.321Z,6.08
2018-01-08T00:39:32.328Z,6.07
2018-01-08T00:40:32.119Z,6.11
2018-01-08T00:41:32.082Z,6.11
2018-01-08T00:42:32.086Z,6.22
2018-01-08T00:43:32.099Z,6.11
2018-01-08T00:44:32.388Z,6.16
2018-01-08T00:45:32.175Z,6.09
2018-01-08T00:46:32.410Z,6.12
2018-01-08T00:47:32.421Z,6.2
2018-01-08T00:48:31.880Z,6.14
2018-01-08T00:49:32.164Z,6.07
2018-01-08T00:50:32.177Z,6.08
2018-01-08T00:51:32.201Z,6.02
2018-01-08T00:52:32.478Z,6.05
2018-01-08T00:53:31.935Z,6.05
2018-01-08T00:54:32.497Z,6.14
2018-01-08T00:55:32.556Z,6.08
2018-01-08T00:56:32.524Z,6.05
2018-01-08T00:57:32.260Z,6.02
2018-01-08T00:58:32.266Z,6.04
2018-01-08T00:59:32.281Z,6.07
2018-01-08T01:00:32.288Z,6.05
2018-01-08T01:01:32.571Z,6.02
2018-01-08T01:02:32.311Z,5.98
2018-01-08T01:03:32.603Z,6.01
2018-01-08T01:04:32.333Z,6.08
2018-01-08T01:05:32.349Z,5.97
2018-01-08T01:06:32.630Z,6.01
2018-01-08T01:07:32.648Z,6.01
2018-01-08T01:08:32.649Z,6.02
2018-01-08T01:09:32.662Z,6.07
2018-01-08T01:10:32.674Z,6.09
2018-01-08T01:11:32.407Z,5.98
2018-01-08T01:12:32.698Z,6.01
2018-01-08T01:13:32.432Z,6.02
2018-01-08T01:14:32.718Z,5.97
2018-01-08T01:15:32.731Z,6.02
2018-01-08T01:16:32.465Z,5.98
2018-01-08T01:17:32.478Z,6.02
2018-01-08T01:18:32.483Z,5.94
2018-01-08T01:19:32.496Z,6.05
2018-01-08T01:20:32.792Z,6.02
2018-01-08T01:21:32.527Z,6.02
2018-01-08T01:22:32.806Z,6.02
2018-01-08T01:23:32.824Z,6.09
2018-01-08T01:24:32.274Z,6.02
2018-01-08T01:25:32.565Z,5.98
2018-01-08T01:26:32.851Z,6.02
2018-01-08T01:27:32.864Z,6.05
2018-01-08T01:28:32.875Z,6.02
2018-01-08T01:29:32.885Z,6.02
2018-01-08T01:30:32.623Z,6.04
2018-01-08T01:31:32.906Z,6.02
2018-01-08T01:32:32.642Z,6.01
2018-01-08T01:33:32.651Z,5.97
2018-01-08T01:34:32.670Z,5.99
2018-01-08T01:35:32.950Z,6.05
2018-01-08T01:36:32.685Z,6.05
2018-01-08T01:37:32.693Z,5.99
2018-01-08T01:38:32.978Z,6.05
2018-01-08T01:39:33.020Z,5.94
2018-01-08T01:40:32.734Z,5.99
2018-01-08T01:41:32.741Z,6.01
2018-01-08T01:42:32.476Z,5.99
2018-01-08T01:43:32.764Z,5.99
2018-01-08T01:44:33.048Z,6.01
2018-01-08T01:45:33.062Z,5.9
2018-01-08T01:46:32.842Z,5.9
2018-01-08T01:47:33.080Z,5.91
2018-01-08T01:48:33.091Z,5.93
2018-01-08T01:49:32.825Z,5.99
2018-01-08T01:50:33.115Z,5.98
2018-01-08T01:51:33.124Z,5.94
2018-01-08T01:52:32.858Z,5.97
2018-01-08T01:53:33.159Z,5.91
2018-01-08T01:54:33.153Z,5.91
2018-01-08T01:55:32.619Z,5.94
2018-01-08T01:56:32.902Z,5.98
2018-01-08T01:57:32.636Z,5.99
2018-01-08T01:58:32.922Z,5.97
2018-01-08T01:59:32.934Z,6.04
2018-01-08T02:00:32.668Z,5.97
2018-01-08T02:01:33.301Z,5.91
2018-01-08T02:02:33.243Z,5.97
2018-01-08T02:03:33.256Z,6.04
2018-01-08T02:04:33.267Z,5.9
2018-01-08T02:05:33.004Z,5.97
2018-01-08T02:06:33.298Z,5.99
2018-01-08T02:07:33.022Z,5.97
2018-01-08T02:08:33.309Z,5.99
2018-01-08T02:09:33.044Z,5.97
2018-01-08T02:10:33.338Z,5.94
2018-01-08T02:11:33.392Z,5.94
2018-01-08T02:12:32.805Z,5.91
2018-01-08T02:13:33.362Z,5.94
2018-01-08T02:14:33.095Z,5.94
2018-01-08T02:15:33.390Z,5.99
2018-01-08T02:16:32.899Z,5.91
2018-01-08T02:17:33.411Z,5.89
2018-01-08T02:18:33.147Z,5.91
2018-01-08T02:19:33.153Z,5.91
2018-01-08T02:20:33.167Z,5.99
2018-01-08T02:21:33.174Z,5.94
2018-01-08T02:22:33.186Z,5.93
2018-01-08T02:23:33.199Z,5.89
2018-01-08T02:24:32.932Z,5.89
2018-01-08T02:25:33.500Z,5.98
2018-01-08T02:26:33.553Z,6.01
2018-01-08T02:27:33.515Z,5.94
2018-01-08T02:28:33.571Z,5.9
2018-01-08T02:29:33.260Z,5.9
2018-01-08T02:30:33.278Z,5.89
2018-01-08T02:31:33.561Z,5.93
2018-01-08T02:32:33.594Z,5.89
2018-01-08T02:33:33.030Z,5.93
2018-01-08T02:34:33.042Z,5.93
2018-01-08T02:35:33.603Z,5.91
2018-01-08T02:36:33.613Z,5.91
2018-01-08T02:37:33.351Z,5.86
2018-01-08T02:38:33.365Z,5.82
2018-01-08T02:39:33.377Z,5.84
2018-01-08T02:40:33.383Z,5.82
2018-01-08T02:41:33.120Z,5.84
2018-01-08T02:42:33.409Z,5.9
2018-01-08T02:43:33.719Z,5.82
2018-01-08T02:44:33.709Z,5.91
2018-01-08T02:45:33.712Z,5.82
2018-01-08T02:46:33.730Z,5.75
2018-01-08T02:47:33.735Z,5.89
2018-01-08T02:48:33.749Z,5.89
2018-01-08T02:49:33.483Z,5.84
2018-01-08T02:50:33.494Z,5.84
2018-01-08T02:51:33.504Z,5.75
2018-01-08T02:52:33.519Z,5.9
2018-01-08T02:53:33.533Z,5.86
2018-01-08T02:54:33.536Z,5.83
2018-01-08T02:55:33.267Z,5.84
2018-01-08T02:56:33.554Z,5.86
2018-01-08T02:57:33.846Z,5.89
2018-01-08T02:58:33.575Z,5.87
2018-01-08T02:59:33.590Z,5.84
2018-01-08T03:00:33.329Z,5.8
2018-01-08T03:01:33.611Z,5.86
2018-01-08T03:02:33.894Z,5.87
2018-01-08T03:03:33.907Z,5.86
2018-01-08T03:04:33.651Z,5.89
2018-01-08T03:05:33.928Z,5.83
2018-01-08T03:06:33.389Z,5.83
2018-01-08T03:07:33.675Z,5.84
2018-01-08T03:08:33.681Z,5.9
2018-01-08T03:09:33.695Z,5.86
2018-01-08T03:10:33.986Z,5.9
2018-01-08T03:11:33.723Z,5.91
2018-01-08T03:12:33.455Z,5.8
2018-01-08T03:13:34.031Z,5.87
2018-01-08T03:14:33.750Z,5.82
2018-01-08T03:15:34.038Z,5.79
2018-01-08T03:16:34.047Z,5.8
2018-01-08T03:17:34.060Z,5.86
2018-01-08T03:18:33.798Z,5.8
2018-01-08T03:19:34.089Z,5.82
2018-01-08T03:20:33.819Z,5.79
2018-01-08T03:21:34.107Z,5.79
2018-01-08T03:22:34.120Z,5.84
2018-01-08T03:23:33.845Z,5.8
2018-01-08T03:24:33.858Z,5.8
2018-01-08T03:25:33.867Z,5.79
2018-01-08T03:26:33.884Z,5.76
2018-01-08T03:27:33.892Z,5.82
2018-01-08T03:28:33.903Z,5.8
2018-01-08T03:29:33.913Z,5.83
2018-01-08T03:30:33.930Z,5.76
2018-01-08T03:31:34.235Z,5.79
2018-01-08T03:32:33.945Z,5.8
2018-01-08T03:33:34.248Z,5.75
2018-01-08T03:34:34.240Z,5.83
2018-01-08T03:35:33.706Z,5.8
2018-01-08T03:36:34.262Z,5.83
2018-01-08T03:37:34.294Z,5.79
2018-01-08T03:38:34.009Z,5.75
2018-01-08T03:39:34.301Z,5.76
2018-01-08T03:40:34.305Z,5.75
2018-01-08T03:41:34.319Z,5.72
2018-01-08T03:42:34.058Z,5.75
2018-01-08T03:43:34.337Z,5.75
2018-01-08T03:44:34.351Z,5.72
2018-01-08T03:45:34.361Z,5.73
2018-01-08T03:46:34.095Z,5.72
2018-01-08T03:47:34.104Z,5.76
2018-01-08T03:48:33.845Z,5.76
2018-01-08T03:49:34.131Z,5.75
2018-01-08T03:50:34.418Z,5.76
2018-01-08T03:51:34.429Z,5.75
2018-01-08T03:52:34.435Z,5.73
2018-01-08T03:53:34.173Z,5.75
2018-01-08T03:54:34.457Z,5.71
2018-01-08T03:55:34.470Z,5.8
2018-01-08T03:56:34.204Z,5.75
2018-01-08T03:57:33.938Z,5.82
2018-01-08T03:58:34.227Z,5.79
2018-01-08T03:59:34.512Z,5.75
2018-01-08T04:00:34.247Z,5.82
2018-01-08T04:01:34.534Z,5.73
2018-01-08T04:02:33.993Z,5.75
2018-01-08T04:03:34.278Z,5.82
2018-01-08T04:04:34.571Z,5.75
2018-01-08T04:05:34.295Z,5.73
2018-01-08T04:06:34.327Z,5.79
2018-01-08T04:07:34.322Z,5.75
2018-01-08T04:08:34.332Z,5.76
2018-01-08T04:09:34.067Z,5.79
2018-01-08T04:10:34.356Z,5.73
2018-01-08T04:11:34.367Z,5.69
2018-01-08T04:12:34.702Z,5.68
2018-01-08T04:13:34.385Z,5.8
2018-01-08T04:14:34.396Z,5.72
2018-01-08T04:15:34.411Z,5.75
2018-01-08T04:16:34.422Z,5.69
2018-01-08T04:17:34.757Z,5.73
2018-01-08T04:18:34.717Z,5.66
2018-01-08T04:19:34.455Z,5.68
2018-01-08T04:20:34.184Z,5.72
2018-01-08T04:21:34.752Z,5.72
2018-01-08T04:22:34.479Z,5.71
2018-01-08T04:23:34.492Z,5.69
2018-01-08T04:24:34.229Z,5.76
2018-01-08T04:25:34.519Z,5.73
2018-01-08T04:26:34.524Z,5.72
2018-01-08T04:27:34.542Z,5.76
2018-01-08T04:28:34.839Z,5.76
2018-01-08T04:29:34.831Z,5.79
2018-01-08T04:30:34.573Z,5.68
2018-01-08T04:31:34.304Z,5.71
2018-01-08T04:32:34.646Z,5.71
2018-01-08T04:33:34.601Z,5.75
2018-01-08T04:34:34.885Z,5.69
2018-01-08T04:35:34.902Z,5.75
2018-01-08T04:36:34.631Z,5.69
2018-01-08T04:37:34.937Z,5.62
2018-01-08T04:38:34.379Z,5.68
2018-01-08T04:39:34.939Z,5.69
2018-01-08T04:40:34.400Z,5.65
2018-01-08T04:41:34.409Z,5.73
2018-01-08T04:42:34.974Z,5.64
2018-01-08T04:43:34.710Z,5.69
2018-01-08T04:44:34.718Z,5.76
2018-01-08T04:45:34.729Z,5.69
2018-01-08T04:46:35.015Z,5.68
2018-01-08T04:47:34.475Z,5.66
2018-01-08T04:48:34.773Z,5.71
2018-01-08T04:49:34.803Z,5.72
2018-01-08T04:50:35.062Z,5.73
2018-01-08T04:51:34.519Z,5.71
2018-01-08T04:52:34.805Z,5.59
2018-01-08T04:53:35.089Z,5.75
2018-01-08T04:54:35.114Z,5.69
2018-01-08T04:55:34.565Z,5.62
2018-01-08T04:56:34.847Z,5.65
2018-01-08T04:57:35.130Z,5.62
2018-01-08T04:58:35.144Z,5.65
2018-01-08T04:59:34.883Z,5.66
2018-01-08T05:00:34.889Z,5.66
2018-01-08T05:01:35.178Z,5.62
2018-01-08T05:02:35.184Z,5.68
2018-01-08T05:03:34.645Z,5.64
2018-01-08T05:04:35.213Z,5.62
2018-01-08T05:05:35.218Z,5.68
2018-01-08T05:06:35.228Z,5.66
2018-01-08T05:07:34.961Z,5.71
2018-01-08T05:08:34.972Z,5.64
2018-01-08T05:09:35.259Z,5.66
2018-01-08T05:10:35.032Z,5.62
2018-01-08T05:11:35.299Z,5.66
2018-01-08T05:12:35.345Z,5.64
2018-01-08T05:13:35.301Z,5.71
2018-01-08T05:14:35.036Z,5.62
2018-01-08T05:15:34.775Z,5.71
2018-01-08T05:16:35.059Z,5.71
2018-01-08T05:17:35.070Z,5.57
2018-01-08T05:18:35.358Z,5.71
2018-01-08T05:19:35.088Z,5.66
2018-01-08T05:20:35.102Z,5.65
2018-01-08T05:21:35.387Z,5.64
2018-01-08T05:22:35.404Z,5.56
2018-01-08T05:23:35.415Z,5.57
2018-01-08T05:24:35.144Z,5.59
2018-01-08T05:25:35.162Z,5.62
2018-01-08T05:26:35.443Z,5.62
2018-01-08T05:27:34.951Z,5.53
2018-01-08T05:28:35.183Z,5.62
2018-01-08T05:29:35.479Z,5.54
2018-01-08T05:30:34.932Z,5.56
2018-01-08T05:31:35.492Z,5.59
2018-01-08T05:32:35.541Z,5.54
2018-01-08T05:33:35.514Z,5.54
2018-01-08T05:34:35.527Z,5.5
2018-01-08T05:35:35.258Z,5.61
2018-01-08T05:36:35.282Z,5.56
2018-01-08T05:37:35.563Z,5.62
2018-01-08T05:38:35.290Z,5.48
2018-01-08T05:39:35.302Z,5.61
2018-01-08T05:40:35.313Z,5.54
2018-01-08T05:41:35.325Z,5.54
2018-01-08T05:42:35.611Z,5.59
2018-01-08T05:43:35.619Z,5.51
2018-01-08T05:44:35.079Z,5.51
2018-01-08T05:45:35.641Z,5.56
2018-01-08T05:46:35.099Z,5.48
2018-01-08T05:47:35.110Z,5.51
2018-01-08T05:48:35.397Z,5.53
2018-01-08T05:49:35.412Z,5.5
2018-01-08T05:50:35.692Z,5.53
2018-01-08T05:51:35.428Z,5.51
2018-01-08T05:52:35.448Z,5.56
2018-01-08T05:53:35.478Z,5.5
2018-01-08T05:54:35.467Z,5.59
2018-01-08T05:55:35.477Z,5.54
2018-01-08T05:56:35.763Z,5.47
2018-01-08T05:57:35.773Z,5.48
2018-01-08T05:58:35.512Z,5.5
2018-01-08T05:59:35.518Z,5.54
2018-01-08T06:00:35.799Z,5.57
2018-01-08T06:01:35.533Z,5.5
2018-01-08T06:02:35.823Z,5.57
2018-01-08T06:03:35.556Z,5.5
2018-01-08T06:04:35.287Z,5.57
2018-01-08T06:05:35.858Z,5.53
2018-01-08T06:06:35.592Z,5.47
2018-01-08T06:07:35.599Z,5.5
2018-01-08T06:08:35.885Z,5.54
2018-01-08T06:09:35.618Z,5.53
2018-01-08T06:10:35.631Z,5.48
2018-01-08T06:11:35.918Z,5.56
2018-01-08T06:12:35.650Z,5.51
2018-01-08T06:13:35.941Z,5.51
2018-01-08T06:14:35.681Z,5.54
2018-01-08T06:15:35.962Z,5.5
2018-01-08T06:16:35.969Z,5.46
2018-01-08T06:17:35.702Z,5.53
2018-01-08T06:18:35.439Z,5.54
2018-01-08T06:19:36.000Z,5.48
2018-01-08T06:20:35.736Z,5.56
2018-01-08T06:21:35.746Z,5.57
2018-01-08T06:22:36.035Z,5.53
2018-01-08T06:23:36.045Z,5.54
2018-01-08T06:24:36.053Z,5.57
2018-01-08T06:25:35.791Z,5.5
2018-01-08T06:26:36.086Z,5.5
2018-01-08T06:27:35.531Z,5.5
2018-01-08T06:28:35.823Z,5.53
2018-01-08T06:29:35.555Z,5.48
2018-01-08T06:30:36.117Z,5.5
2018-01-08T06:31:35.859Z,5.48
2018-01-08T06:32:36.145Z,5.5
2018-01-08T06:33:35.872Z,5.53
2018-01-08T06:34:36.186Z,5.53
2018-01-08T06:35:35.904Z,5.54
2018-01-08T06:36:35.908Z,5.48
2018-01-08T06:37:36.196Z,5.48
2018-01-08T06:38:36.203Z,5.5
2018-01-08T06:39:35.935Z,5.57
2018-01-08T06:40:36.219Z,5.48
2018-01-08T06:41:35.958Z,5.57
2018-01-08T06:42:35.967Z,5.53
2018-01-08T06:43:36.254Z,5.53
2018-01-08T06:44:35.985Z,5.54
2018-01-08T06:45:35.996Z,5.53
2018-01-08T06:46:36.011Z,5.47
2018-01-08T06:47:35.746Z,5.46
2018-01-08T06:48:36.311Z,5.43
2018-01-08T06:49:36.319Z,5.47
2018-01-08T06:50:35.776Z,5.46
2018-01-08T06:51:36.342Z,5.46
2018-01-08T06:52:36.114Z,5.47
2018-01-08T06:53:36.360Z,5.48
2018-01-08T06:54:36.370Z,5.47
2018-01-08T06:55:36.380Z,5.56
2018-01-08T06:56:36.408Z,5.46
2018-01-08T06:57:35.848Z,5.47
2018-01-08T06:58:36.138Z,5.46
2018-01-08T06:59:36.143Z,5.47
2018-01-08T07:00:35.878Z,5.43
2018-01-08T07:01:36.442Z,5.5
2018-01-08T07:02:36.458Z,5.47
2018-01-08T07:03:36.466Z,5.48
2018-01-08T07:04:36.199Z,5.43
2018-01-08T07:05:35.931Z,5.51
2018-01-08T07:06:35.942Z,5.5
2018-01-08T07:07:36.508Z,5.48
2018-01-08T07:08:36.566Z,5.47
2018-01-08T07:09:35.974Z,5.47
2018-01-08T07:10:36.263Z,5.47
2018-01-08T07:11:36.275Z,5.47
2018-01-08T07:12:36.557Z,5.43
2018-01-08T07:13:36.293Z,5.47
2018-01-08T07:14:36.582Z,5.51
2018-01-08T07:15:36.591Z,5.57
2018-01-08T07:16:36.326Z,5.56
2018-01-08T07:17:36.338Z,5.61
2018-01-08T07:18:36.341Z,5.53
2018-01-08T07:19:36.350Z,5.54
2018-01-08T07:20:36.646Z,5.53
2018-01-08T07:21:36.656Z,5.57
2018-01-08T07:22:36.658Z,5.57
2018-01-08T07:23:36.129Z,5.59
2018-01-08T07:24:36.691Z,5.64
2018-01-08T07:25:36.417Z,5.66
2018-01-08T07:26:36.431Z,5.59
2018-01-08T07:27:36.437Z,5.71
2018-01-08T07:28:36.784Z,5.69
2018-01-08T07:29:36.740Z,5.71
2018-01-08T07:30:36.482Z,5.72
2018-01-08T07:31:36.756Z,5.68
2018-01-08T07:32:36.769Z,5.64
2018-01-08T07:33:36.778Z,5.61
2018-01-08T07:34:36.897Z,5.72
2018-01-08T07:35:36.798Z,5.57
2018-01-08T07:36:36.812Z,5.65
2018-01-08T07:37:36.819Z,5.69
2018-01-08T07:38:36.556Z,5.73
2018-01-08T07:39:36.564Z,5.69
2018-01-08T07:40:36.856Z,5.69
2018-01-08T07:41:36.308Z,5.66
2018-01-08T07:42:36.939Z,5.72
2018-01-08T07:43:36.607Z,5.68
2018-01-08T07:44:36.346Z,5.72
2018-01-08T07:45:36.626Z,5.66
2018-01-08T07:46:36.364Z,5.65
2018-01-08T07:47:36.922Z,5.57
2018-01-08T07:48:36.660Z,5.66
2018-01-08T07:49:36.949Z,5.65
2018-01-08T07:50:36.959Z,5.62
2018-01-08T07:51:36.972Z,5.71
2018-01-08T07:52:36.975Z,5.68
2018-01-08T07:53:36.988Z,5.72
2018-01-08T07:54:37.099Z,5.64
2018-01-08T07:55:36.732Z,5.64
2018-01-08T07:56:36.747Z,5.71
2018-01-08T07:57:37.033Z,5.65
2018-01-08T07:58:37.079Z,5.71
2018-01-08T07:59:36.776Z,5.64
2018-01-08T08:00:37.063Z,5.62
2018-01-08T08:01:36.795Z,5.62
2018-01-08T08:02:37.085Z,5.62
2018-01-08T08:03:36.544Z,5.54
2018-01-08T08:04:36.551Z,5.65
2018-01-08T08:05:36.843Z,5.61
2018-01-08T08:06:36.851Z,5.57
2018-01-08T08:07:37.137Z,5.57
2018-01-08T08:08:36.880Z,5.56
2018-01-08T08:09:36.880Z,5.57
2018-01-08T08:10:37.168Z,5.64
2018-01-08T08:11:37.175Z,5.64
2018-01-08T08:12:37.189Z,5.59
2018-01-08T08:13:37.205Z,5.61
2018-01-08T08:14:36.939Z,5.57
2018-01-08T08:15:37.221Z,5.64
2018-01-08T08:16:36.952Z,5.57
2018-01-08T08:17:36.961Z,5.68
2018-01-08T08:18:36.978Z,5.57
2018-01-08T08:19:37.268Z,5.64
2018-01-08T08:20:36.998Z,5.59
2018-01-08T08:21:37.007Z,5.56
2018-01-08T08:22:37.291Z,5.54
2018-01-08T08:23:37.028Z,5.62
2018-01-08T08:24:37.316Z,5.61
2018-01-08T08:25:37.049Z,5.65
2018-01-08T08:26:36.783Z,5.61
2018-01-08T08:27:37.348Z,5.57
2018-01-08T08:28:37.081Z,5.59
2018-01-08T08:29:37.372Z,5.64
2018-01-08T08:30:37.099Z,5.62
2018-01-08T08:31:37.114Z,5.57
2018-01-08T08:32:36.850Z,5.59
2018-01-08T08:33:37.135Z,5.59
2018-01-08T08:34:37.425Z,5.61
2018-01-08T08:35:37.164Z,5.57
2018-01-08T08:36:37.211Z,5.56
2018-01-08T08:37:37.173Z,5.61
2018-01-08T08:38:37.188Z,5.54
2018-01-08T08:39:37.490Z,5.57
2018-01-08T08:40:37.272Z,5.57
2018-01-08T08:41:37.215Z,5.59
2018-01-08T08:42:37.232Z,5.57
2018-01-08T08:43:36.962Z,5.61
2018-01-08T08:44:37.258Z,5.61
2018-01-08T08:45:37.539Z,5.59
2018-01-08T08:46:37.273Z,5.56
2018-01-08T08:47:37.559Z,5.61
2018-01-08T08:48:37.565Z,5.59
2018-01-08T08:49:37.303Z,5.68
2018-01-08T08:50:37.590Z,5.68
2018-01-08T08:51:37.601Z,5.68
2018-01-08T08:52:37.330Z,5.65
2018-01-08T08:53:37.340Z,5.68
2018-01-08T08:54:37.403Z,5.65
2018-01-08T08:55:37.366Z,5.64
2018-01-08T08:56:37.651Z,5.68
2018-01-08T08:57:37.389Z,5.71
2018-01-08T08:58:37.397Z,5.64
2018-01-08T08:59:37.687Z,5.59
2018-01-08T09:00:37.148Z,5.64
2018-01-08T09:01:37.703Z,5.59
2018-01-08T09:02:37.169Z,5.66
2018-01-08T09:03:37.799Z,5.64
2018-01-08T09:04:37.461Z,5.65
2018-01-08T09:05:37.196Z,5.61
2018-01-08T09:06:37.486Z,5.68
2018-01-08T09:07:37.801Z,5.65
2018-01-08T09:08:37.506Z,5.65
2018-01-08T09:09:37.792Z,5.61
2018-01-08T09:10:37.528Z,5.68
2018-01-08T09:11:37.810Z,5.66
2018-01-08T09:12:37.547Z,5.65
2018-01-08T09:13:37.860Z,5.66
2018-01-08T09:14:38.055Z,5.68
2018-01-08T09:15:37.574Z,5.73
2018-01-08T09:16:37.586Z,5.61
2018-01-08T09:17:37.874Z,5.73
2018-01-08T09:18:37.608Z,5.73
2018-01-08T09:19:37.892Z,5.72
2018-01-08T09:20:37.628Z,5.69
2018-01-08T09:21:37.917Z,5.69
2018-01-08T09:22:37.931Z,5.72
2018-01-08T09:23:37.668Z,5.73
2018-01-08T09:24:37.675Z,5.76
2018-01-08T09:25:37.959Z,5.79
2018-01-08T09:26:37.417Z,5.68
2018-01-08T09:27:37.725Z,5.8
2018-01-08T09:28:37.443Z,5.82
2018-01-08T09:29:38.007Z,5.73
2018-01-08T09:30:38.016Z,5.76
2018-01-08T09:31:37.751Z,5.8
2018-01-08T09:32:38.045Z,5.8
2018-01-08T09:33:37.808Z,5.79
2018-01-08T09:34:37.888Z,5.76
2018-01-08T09:35:37.790Z,5.84
2018-01-08T09:36:37.803Z,5.83
2018-01-08T09:37:38.086Z,5.86
2018-01-08T09:38:38.097Z,5.86
2018-01-08T09:39:38.165Z,5.87
2018-01-08T09:40:37.843Z,5.84
2018-01-08T09:41:37.954Z,5.87
2018-01-08T09:42:37.900Z,5.87
2018-01-08T09:43:38.260Z,5.9
2018-01-08T09:44:37.644Z,5.87
2018-01-08T09:45:38.191Z,5.89
2018-01-08T09:46:37.938Z,5.89
2018-01-08T09:47:38.197Z,5.87
2018-01-08T09:48:37.668Z,5.93
2018-01-08T09:49:38.283Z,5.89
2018-01-08T09:50:37.950Z,5.91
2018-01-08T09:51:37.962Z,5.89
2018-01-08T09:52:37.710Z,5.93
2018-01-08T09:53:38.020Z,5.94
2018-01-08T09:54:38.330Z,6.04
2018-01-08T09:55:38.002Z,5.99
2018-01-08T09:56:38.401Z,5.99
2018-01-08T09:57:38.384Z,5.98
2018-01-08T09:58:38.324Z,6.07
2018-01-08T09:59:38.331Z,6.14
2018-01-08T10:00:38.056Z,6.12
2018-01-08T10:01:38.075Z,6.27
2018-01-08T10:02:38.082Z,6.28
2018-01-08T10:03:38.360Z,6.26
2018-01-08T10:04:38.098Z,6.22
2018-01-08T10:05:38.390Z,6.24
2018-01-08T10:06:38.432Z,6.24
2018-01-08T10:07:38.416Z,6.2
2018-01-08T10:08:38.414Z,6.24
2018-01-08T10:09:38.491Z,6.31
2018-01-08T10:10:38.170Z,6.28
2018-01-08T10:11:38.451Z,6.27
2018-01-08T10:12:38.460Z,6.26
2018-01-08T10:13:38.502Z,6.3
2018-01-08T10:14:38.489Z,6.31
2018-01-08T10:15:38.493Z,6.27
2018-01-08T10:16:38.509Z,6.31
2018-01-08T10:17:38.237Z,6.31
2018-01-08T10:18:38.539Z,6.27
2018-01-08T10:19:38.536Z,6.3
2018-01-08T10:20:38.560Z,6.31
2018-01-08T10:21:38.560Z,6.33
2018-01-08T10:22:38.304Z,6.33
2018-01-08T10:23:38.303Z,6.3
2018-01-08T10:24:38.596Z,6.3
2018-01-08T10:25:38.327Z,6.33
2018-01-08T10:26:38.614Z,6.3
2018-01-08T10:27:38.355Z,6.33
2018-01-08T10:28:38.638Z,6.39
2018-01-08T10:29:38.372Z,6.3
2018-01-08T10:30:38.386Z,6.44
2018-01-08T10:31:38.398Z,6.31
2018-01-08T10:32:38.400Z,6.38
2018-01-08T10:33:38.690Z,6.38
2018-01-08T10:34:38.146Z,6.35
2018-01-08T10:35:38.709Z,6.36
2018-01-08T10:36:38.727Z,6.39
2018-01-08T10:37:38.736Z,6.35
2018-01-08T10:38:38.474Z,6.39
2018-01-08T10:39:38.477Z,6.35
2018-01-08T10:40:38.496Z,6.36
2018-01-08T10:41:38.511Z,6.3
2018-01-08T10:42:38.528Z,6.39
2018-01-08T10:43:38.798Z,6.41
2018-01-08T10:44:38.814Z,6.33
2018-01-08T10:45:38.549Z,6.39
2018-01-08T10:46:38.836Z,6.38
2018-01-08T10:47:38.840Z,6.36
2018-01-08T10:48:38.310Z,6.3
2018-01-08T10:49:38.591Z,6.36
2018-01-08T10:50:38.880Z,6.35
2018-01-08T10:51:38.896Z,6.39
2018-01-08T10:52:38.967Z,6.36
2018-01-08T10:53:38.918Z,6.38
2018-01-08T10:54:38.368Z,6.35
2018-01-08T10:55:38.661Z,6.36
2018-01-08T10:56:38.945Z,6.33
2018-01-08T10:57:38.680Z,6.49
2018-01-08T10:58:38.691Z,6.33
2018-01-08T10:59:38.982Z,6.48
2018-01-08T11:00:38.765Z,6.46
2018-01-08T11:01:39.007Z,6.49
2018-01-08T11:02:39.056Z,6.46
2018-01-08T11:03:38.760Z,6.45
2018-01-08T11:04:38.759Z,6.42
2018-01-08T11:05:39.059Z,6.45
2018-01-08T11:06:38.506Z,6.44
2018-01-08T11:07:38.790Z,6.57
2018-01-08T11:08:38.803Z,6.56
2018-01-08T11:09:39.138Z,6.54
2018-01-08T11:10:38.854Z,6.56
2018-01-08T11:11:38.889Z,6.57
2018-01-08T11:12:39.128Z,6.59
2018-01-08T11:13:39.157Z,6.54
2018-01-08T11:14:39.151Z,6.59
2018-01-08T11:15:39.253Z,6.52
2018-01-08T11:16:39.171Z,6.45
2018-01-08T11:17:38.904Z,6.64
2018-01-08T11:18:39.191Z,6.51
2018-01-08T11:19:39.210Z,6.57
2018-01-08T11:20:38.993Z,6.52
2018-01-08T11:21:38.954Z,6.56
2018-01-08T11:22:38.957Z,6.57
2018-01-08T11:23:38.971Z,6.54
2018-01-08T11:24:38.982Z,6.57
2018-01-08T11:25:39.047Z,6.59
2018-01-08T11:26:39.287Z,6.62
2018-01-08T11:27:39.016Z,6.57
2018-01-08T11:28:39.024Z,6.67
2018-01-08T11:29:39.315Z,6.67
2018-01-08T11:30:39.362Z,6.69
2018-01-08T11:31:39.062Z,6.69
2018-01-08T11:32:39.071Z,6.63
2018-01-08T11:33:39.360Z,6.6
2018-01-08T11:34:39.536Z,6.66
2018-01-08T11:35:39.388Z,6.63
2018-01-08T11:36:39.122Z,6.69
2018-01-08T11:37:39.408Z,6.63
2018-01-08T11:38:39.143Z,6.67
2018-01-08T11:39:39.428Z,6.64
2018-01-08T11:40:38.888Z,6.74
2018-01-08T11:41:39.221Z,6.7
2018-01-08T11:42:38.912Z,6.74
2018-01-08T11:43:39.196Z,6.72
2018-01-08T11:44:39.483Z,6.66
2018-01-08T11:45:39.219Z,6.72
2018-01-08T11:46:39.234Z,6.67
2018-01-08T11:47:39.520Z,6.78
2018-01-08T11:48:39.534Z,6.66
2018-01-08T11:49:39.270Z,6.79
2018-01-08T11:50:39.276Z,6.79
2018-01-08T11:51:39.289Z,6.77
2018-01-08T11:52:39.578Z,6.81
2018-01-08T11:53:39.588Z,6.82
2018-01-08T11:54:39.615Z,6.81
2018-01-08T11:55:39.335Z,6.85
2018-01-08T11:56:39.616Z,6.81
2018-01-08T11:57:39.364Z,6.81
2018-01-08T11:58:39.660Z,6.88
2018-01-08T11:59:39.667Z,6.82
2018-01-08T12:00:39.721Z,6.85
2018-01-08T12:01:39.399Z,6.84
2018-01-08T12:02:39.687Z,6.79
2018-01-08T12:03:39.708Z,6.82
2018-01-08T12:04:39.717Z,6.88
2018-01-08T12:05:39.497Z,6.82
2018-01-08T12:06:39.455Z,6.85
2018-01-08T12:07:39.470Z,6.81
2018-01-08T12:08:39.485Z,6.85
2018-01-08T12:09:39.494Z,6.85
2018-01-08T12:10:39.779Z,6.87
2018-01-08T12:11:39.796Z,6.81
2018-01-08T12:12:39.804Z,6.79
2018-01-08T12:13:39.542Z,6.85
2018-01-08T12:14:39.549Z,6.85
2018-01-08T12:15:39.565Z,6.74
2018-01-08T12:16:39.581Z,6.78
2018-01-08T12:17:39.865Z,6.81
2018-01-08T12:18:39.878Z,6.82
2018-01-08T12:19:39.888Z,6.82
2018-01-08T12:20:39.900Z,6.77
2018-01-08T12:21:39.910Z,6.87
2018-01-08T12:22:40.012Z,6.79
2018-01-08T12:23:39.654Z,6.81
2018-01-08T12:24:39.665Z,6.82
2018-01-08T12:25:39.755Z,6.88
2018-01-08T12:26:39.699Z,6.88
2018-01-08T12:27:39.739Z,6.85
2018-01-08T12:28:39.986Z,6.81
2018-01-08T12:29:39.449Z,6.81
2018-01-08T12:30:39.460Z,6.78
2018-01-08T12:31:39.476Z,6.84
2018-01-08T12:32:39.759Z,6.84
2018-01-08T12:33:40.072Z,6.78
2018-01-08T12:34:40.059Z,6.82
2018-01-08T12:35:40.073Z,6.75
2018-01-08T12:36:40.158Z,6.79
2018-01-08T12:37:39.817Z,6.82
2018-01-08T12:38:39.833Z,6.75
2018-01-08T12:39:39.844Z,6.82
2018-01-08T12:40:39.854Z,6.81
2018-01-08T12:41:39.866Z,6.81
2018-01-08T12:42:40.149Z,6.79
2018-01-08T12:43:39.889Z,6.81
2018-01-08T12:44:39.628Z,6.81
2018-01-08T12:45:39.910Z,6.87
2018-01-08T12:46:40.197Z,6.85
2018-01-08T12:47:40.209Z,6.81
2018-01-08T12:48:39.945Z,6.82
2018-01-08T12:49:40.231Z,6.75
2018-01-08T12:50:40.250Z,6.78
2018-01-08T12:51:40.259Z,6.79
2018-01-08T12:52:40.265Z,6.79
2018-01-08T12:53:39.728Z,6.77
2018-01-08T12:54:40.028Z,6.7
2018-01-08T12:55:40.299Z,6.77
2018-01-08T12:56:40.035Z,6.79
2018-01-08T12:57:40.320Z,6.78
2018-01-08T12:58:40.334Z,6.77
2018-01-08T12:59:40.348Z,6.75
2018-01-08T13:00:40.081Z,6.75
2018-01-08T13:01:40.368Z,6.77
2018-01-08T13:02:40.379Z,6.74
2018-01-08T13:03:40.397Z,6.78
2018-01-08T13:04:40.403Z,6.78
2018-01-08T13:05:40.434Z,6.75
2018-01-08T13:06:40.430Z,6.72
2018-01-08T13:07:40.441Z,6.79
2018-01-08T13:08:40.454Z,6.75
2018-01-08T13:09:40.193Z,6.69
2018-01-08T13:10:40.479Z,6.69
2018-01-08T13:11:40.487Z,6.7
2018-01-08T13:12:40.496Z,6.64
2018-01-08T13:13:40.545Z,6.64
2018-01-08T13:14:40.525Z,6.67
2018-01-08T13:15:40.261Z,6.69
2018-01-08T13:16:40.320Z,6.66
2018-01-08T13:17:40.278Z,6.62
2018-01-08T13:18:40.583Z,6.6
2018-01-08T13:19:40.576Z,6.63
2018-01-08T13:20:40.642Z,6.57